Time;durP1;ratioP1;P1;durP2;ratioP2;P2;SDS_P1;SDS_P2;PMS_P1;PMS_P2;Temp;Humidity;BMP_temperature;BMP_pressure;BME280_temperature;BME280_humidity;BME280_pressure;Samples;Min_cycle;Max_cycle;Signal;HPM_P1;HPM_P2
2023/10/20 00:01:47;;;;;;;0.30;0.20;;;;;;;17.50;100.00;97389.34;4976305;28;20479;-49
2023/10/20 00:04:16;;;;;;;0.30;0.20;;;;;;;17.44;100.00;97383.63;4972389;28;20493;-49
2023/10/20 00:06:42;;;;;;;0.60;0.60;;;;;;;17.35;100.00;97378.34;4983543;28;20428;-49
2023/10/20 00:09:14;;;;;;;0.30;0.20;;;;;;;17.15;100.00;97369.66;4985924;28;20454;-49
2023/10/20 00:11:42;;;;;;;0.30;0.20;;;;;;;17.26;100.00;97358.63;4983671;28;20493;-49
2023/10/20 00:14:09;;;;;;;0.30;0.20;;;;;;;17.25;100.00;97356.94;4962213;28;20933;-49
2023/10/20 00:16:35;;;;;;;0.60;0.60;;;;;;;17.27;100.00;97356.78;4981695;28;20436;-49
2023/10/20 00:19:02;;;;;;;0.30;0.20;;;;;;;17.22;100.00;97351.91;4986264;28;20461;-49
2023/10/20 00:21:31;;;;;;;0.30;0.20;;;;;;;17.38;100.00;97345.78;4983860;28;20424;-49
2023/10/20 00:23:59;;;;;;;0.30;0.20;;;;;;;17.41;100.00;97362.44;4979542;28;20523;-50
2023/10/20 00:26:25;;;;;;;0.30;0.20;;;;;;;17.50;100.00;97359.78;4980953;28;20450;-49
2023/10/20 00:28:51;;;;;;;0.30;0.20;;;;;;;17.46;100.00;97344.00;4985669;28;20425;-49
2023/10/20 00:31:18;;;;;;;0.30;0.20;;;;;;;17.55;100.00;97354.81;4984570;28;20858;-49
2023/10/20 00:33:50;;;;;;;1.17;1.17;;;;;;;17.55;100.00;97350.28;4979333;28;20432;-49
2023/10/20 00:36:17;;;;;;;0.53;0.53;;;;;;;17.50;100.00;97351.75;4978536;28;20489;-49
2023/10/20 00:38:43;;;;;;;0.30;0.20;;;;;;;17.29;100.00;97344.91;4979464;28;20512;-49
2023/10/20 00:41:10;;;;;;;0.30;0.20;;;;;;;17.31;100.00;97332.19;4979823;28;20432;-49
2023/10/20 00:43:40;;;;;;;0.40;0.20;;;;;;;17.16;100.00;97323.03;4985696;28;20456;-50
2023/10/20 00:46:10;;;;;;;0.40;0.20;;;;;;;17.25;100.00;97318.53;4989222;28;20453;-49
2023/10/20 00:48:37;;;;;;;0.40;0.20;;;;;;;17.09;100.00;97313.91;4983629;28;20872;-49
2023/10/20 00:51:05;;;;;;;0.30;0.20;;;;;;;17.21;100.00;97318.00;4982860;28;20462;-49
2023/10/20 00:53:34;;;;;;;0.30;0.20;;;;;;;17.20;100.00;97315.50;4988195;28;20471;-49
2023/10/20 00:56:04;;;;;;;0.30;0.20;;;;;;;17.17;100.00;97313.97;4977394;28;20544;-49
2023/10/20 00:58:31;;;;;;;0.40;0.20;;;;;;;17.28;100.00;97323.59;4968929;28;20457;-49
2023/10/20 01:00:57;;;;;;;0.30;0.20;;;;;;;17.40;100.00;97336.56;4969646;28;20512;-50
2023/10/20 01:03:24;;;;;;;0.30;0.30;;;;;;;17.46;100.00;97332.44;4956704;28;20450;-49
2023/10/20 01:05:51;;;;;;;0.30;0.20;;;;;;;17.29;100.00;97325.28;4985888;28;20467;-49
2023/10/20 01:08:18;;;;;;;0.30;0.20;;;;;;;17.08;100.00;97325.66;4967868;28;20549;-49
2023/10/20 01:10:44;;;;;;;0.30;0.20;;;;;;;16.99;100.00;97323.88;4985857;28;20525;-49
2023/10/20 01:13:11;;;;;;;0.40;0.20;;;;;;;17.01;100.00;97320.06;4987018;28;20581;-49
2023/10/20 01:15:37;;;;;;;0.40;0.20;;;;;;;17.07;100.00;97306.00;4988754;28;20449;-49
2023/10/20 01:18:04;;;;;;;0.30;0.20;;;;;;;17.04;100.00;97300.13;4984423;28;20510;-49
2023/10/20 01:20:31;;;;;;;0.90;0.90;;;;;;;16.98;100.00;97301.59;4982294;28;20455;-49
2023/10/20 01:22:59;;;;;;;0.30;0.20;;;;;;;16.97;100.00;97301.75;4986197;28;20463;-50
2023/10/20 01:25:26;;;;;;;0.30;0.20;;;;;;;16.97;100.00;97307.09;4988763;28;20494;-49
2023/10/20 01:27:53;;;;;;;0.30;0.20;;;;;;;17.07;100.00;97303.31;4984788;28;20449;-49
2023/10/20 01:30:21;;;;;;;0.37;0.20;;;;;;;16.99;100.00;97299.75;4981556;28;20514;-49
2023/10/20 01:32:48;;;;;;;0.40;0.20;;;;;;;16.96;100.00;97283.97;4985315;28;20598;-49
2023/10/20 01:35:15;;;;;;;0.30;0.20;;;;;;;17.06;100.00;97290.91;4971675;28;20433;-49
2023/10/20 01:37:42;;;;;;;0.30;0.20;;;;;;;17.07;100.00;97281.03;4984887;28;20457;-49
2023/10/20 01:40:11;;;;;;;0.30;0.20;;;;;;;17.05;100.00;97273.13;4981687;28;20432;-49
2023/10/20 01:42:39;;;;;;;0.30;0.20;;;;;;;17.20;100.00;97259.97;4984442;28;20979;-49
2023/10/20 01:45:06;;;;;;;0.30;0.20;;;;;;;17.16;100.00;97256.75;4988353;28;20451;-49
2023/10/20 01:47:34;;;;;;;0.30;0.20;;;;;;;17.05;100.00;97262.41;4985828;28;20545;-49
2023/10/20 01:50:01;;;;;;;0.30;0.20;;;;;;;17.20;100.00;97243.00;4981572;28;20457;-49
2023/10/20 01:52:28;;;;;;;0.30;0.20;;;;;;;17.37;100.00;97236.69;4983231;28;20494;-49
2023/10/20 01:54:54;;;;;;;0.30;0.20;;;;;;;17.08;100.00;97219.13;4987138;28;20457;-49
2023/10/20 01:57:20;;;;;;;0.30;0.20;;;;;;;17.09;100.00;97219.97;4968629;28;20454;-49
2023/10/20 01:59:47;;;;;;;0.30;0.20;;;;;;;17.12;100.00;97222.31;4968593;28;20428;-49
2023/10/20 02:02:15;;;;;;;0.30;0.20;;;;;;;17.07;100.00;97217.44;4972157;28;20462;-49
2023/10/20 02:04:41;;;;;;;0.30;0.20;;;;;;;17.20;100.00;97214.31;4978676;28;20536;-49
2023/10/20 02:07:08;;;;;;;0.30;0.20;;;;;;;17.38;100.00;97200.78;4982604;28;20513;-49
2023/10/20 02:09:34;;;;;;;0.40;0.30;;;;;;;17.28;100.00;97192.06;4987676;28;20484;-49
2023/10/20 02:12:03;;;;;;;0.30;0.20;;;;;;;17.17;100.00;97190.50;4986487;28;20468;-49
2023/10/20 02:14:30;;;;;;;0.30;0.20;;;;;;;17.16;100.00;97180.75;4981183;28;20428;-49
2023/10/20 02:16:57;;;;;;;0.30;0.20;;;;;;;17.35;100.00;97168.91;4981649;28;20428;-49
2023/10/20 02:19:23;;;;;;;0.30;0.20;;;;;;;17.38;100.00;97169.41;4987372;28;20883;-49
2023/10/20 02:21:51;;;;;;;0.30;0.20;;;;;;;17.33;100.00;97161.00;4986986;28;20470;-49
2023/10/20 02:24:17;;;;;;;0.30;0.20;;;;;;;17.37;100.00;97158.84;4980663;28;20548;-50
2023/10/20 02:26:45;;;;;;;0.30;0.20;;;;;;;17.02;100.00;97165.25;4980887;28;20800;-49
2023/10/20 02:29:12;;;;;;;0.30;0.20;;;;;;;17.13;100.00;97159.59;4981075;28;20545;-49
2023/10/20 02:31:39;;;;;;;0.30;0.20;;;;;;;17.07;100.00;97155.72;4980553;28;20865;-49
2023/10/20 02:34:05;;;;;;;0.40;0.20;;;;;;;16.98;100.00;97151.31;4987076;28;20429;-49
2023/10/20 02:36:34;;;;;;;0.40;0.20;;;;;;;17.18;100.00;97144.69;4987268;28;20463;-50
2023/10/20 02:39:01;;;;;;;0.30;0.20;;;;;;;16.82;100.00;97141.34;4981152;28;20443;-50
2023/10/20 02:41:28;;;;;;;0.30;0.20;;;;;;;16.83;100.00;97147.56;4980237;28;20944;-48
2023/10/20 02:43:55;;;;;;;0.40;0.20;;;;;;;16.88;100.00;97127.31;4986137;28;20421;-50
2023/10/20 02:46:21;;;;;;;0.30;0.20;;;;;;;16.91;100.00;97114.56;4987250;28;20460;-49
2023/10/20 02:48:48;;;;;;;0.53;0.53;;;;;;;16.76;100.00;97106.28;4981427;28;20806;-50
2023/10/20 02:51:15;;;;;;;0.30;0.20;;;;;;;16.91;100.00;97114.56;4980198;28;20450;-49
2023/10/20 02:53:42;;;;;;;0.30;0.20;;;;;;;16.74;100.00;97105.63;4985486;28;20498;-49
2023/10/20 02:56:10;;;;;;;0.30;0.20;;;;;;;16.71;100.00;97082.59;4973804;28;20476;-49
2023/10/20 02:58:38;;;;;;;0.40;0.30;;;;;;;16.73;100.00;97094.03;4982158;28;20457;-49
2023/10/20 03:01:07;;;;;;;0.30;0.20;;;;;;;16.86;100.00;97090.91;4978653;28;20425;-49
2023/10/20 03:03:34;;;;;;;0.30;0.20;;;;;;;16.71;100.00;97077.25;4982474;28;20440;-49
2023/10/20 03:06:02;;;;;;;0.30;0.20;;;;;;;16.69;100.00;97068.53;4976348;28;20513;-49
2023/10/20 03:08:29;;;;;;;0.30;0.30;;;;;;;16.59;100.00;97059.75;4983281;28;20932;-50
2023/10/20 03:10:57;;;;;;;0.30;0.20;;;;;;;16.69;100.00;97055.13;4986677;28;20508;-49
2023/10/20 03:13:25;;;;;;;0.30;0.20;;;;;;;16.70;100.00;97059.47;4983486;28;20940;-49
2023/10/20 03:15:53;;;;;;;0.30;0.20;;;;;;;16.62;100.00;97051.38;4979889;28;20428;-49
2023/10/20 03:18:20;;;;;;;0.97;0.97;;;;;;;16.51;100.00;97035.56;4982557;28;20447;-49
2023/10/20 03:20:48;;;;;;;0.30;0.20;;;;;;;16.35;100.00;97027.47;4986589;28;20981;-49
2023/10/20 03:23:15;;;;;;;0.30;0.20;;;;;;;16.49;100.00;97035.75;4984330;28;20474;-49
2023/10/20 03:25:42;;;;;;;0.30;0.20;;;;;;;16.56;100.00;97019.84;4979777;28;20424;-49
2023/10/20 03:28:09;;;;;;;0.30;0.20;;;;;;;16.53;100.00;97017.47;4982084;28;20541;-49
2023/10/20 03:30:39;;;;;;;0.30;0.20;;;;;;;16.40;100.00;97019.78;4986495;28;20456;-49
2023/10/20 03:33:06;;;;;;;0.30;0.20;;;;;;;16.32;100.00;97014.38;4984804;28;20856;-49
2023/10/20 03:35:33;;;;;;;0.30;0.20;;;;;;;16.26;100.00;96994.41;4979533;28;20455;-49
2023/10/20 03:38:00;;;;;;;0.30;0.20;;;;;;;16.39;100.00;96984.06;4981458;28;20462;-49
2023/10/20 03:40:31;;;;;;;0.30;0.20;;;;;;;16.58;100.00;96974.91;4986208;28;20869;-49
2023/10/20 03:42:58;;;;;;;0.30;0.20;;;;;;;16.40;100.00;96985.75;4985890;28;20481;-49
2023/10/20 03:45:25;;;;;;;0.30;0.20;;;;;;;16.43;100.00;96971.19;4979739;28;20456;-49
2023/10/20 03:47:53;;;;;;;0.30;0.20;;;;;;;16.40;100.00;96972.34;4979767;28;20541;-49
2023/10/20 03:50:19;;;;;;;0.30;0.20;;;;;;;16.30;100.00;96972.47;4967280;28;20878;-49
2023/10/20 03:52:47;;;;;;;0.30;0.20;;;;;;;16.28;100.00;96957.56;4979477;28;20501;-49
2023/10/20 03:55:14;;;;;;;0.30;0.20;;;;;;;16.29;100.00;96941.31;4986049;28;20436;-49
2023/10/20 03:57:44;;;;;;;0.40;0.20;;;;;;;16.25;100.00;96945.31;4974376;28;20454;-48
2023/10/20 04:00:21;;;;;;;0.30;0.20;;;;;;;16.38;100.00;96925.28;4984883;28;20799;-48
2023/10/20 04:02:48;;;;;;;0.30;0.20;;;;;;;16.27;100.00;96911.16;4976200;28;20476;-48
2023/10/20 04:05:16;;;;;;;0.30;0.20;;;;;;;16.17;100.00;96897.06;4979483;28;20432;-48
2023/10/20 04:07:43;;;;;;;0.30;0.20;;;;;;;16.37;100.00;96894.09;4986084;28;20465;-48
2023/10/20 04:10:09;;;;;;;0.53;0.53;;;;;;;16.14;100.00;96888.50;4982948;28;20839;-48
2023/10/20 04:12:39;;;;;;;0.30;0.20;;;;;;;16.13;100.00;96886.81;4979307;28;20544;-50
2023/10/20 04:15:08;;;;;;;0.30;0.20;;;;;;;16.15;100.00;96880.28;4982278;28;20521;-49
2023/10/20 04:17:38;;;;;;;0.30;0.20;;;;;;;16.18;100.00;96860.41;4986024;28;20498;-49
2023/10/20 04:20:07;;;;;;;0.30;0.20;;;;;;;16.32;100.00;96857.09;4986715;28;20468;-49
2023/10/20 04:22:33;;;;;;;0.30;0.20;;;;;;;16.40;100.00;96859.75;4982810;28;20440;-49
2023/10/20 04:25:01;;;;;;;0.30;0.20;;;;;;;16.43;100.00;96861.25;4984535;28;20450;-49
2023/10/20 04:27:49;;;;;;;0.30;0.20;;;;;;;16.47;100.00;96858.13;4989734;28;20879;-49
2023/10/20 05:08:04;;;;;;;0.30;0.20;;;;;;;16.18;100.00;96732.59;4989111;28;20963;-49
2023/10/20 05:10:31;;;;;;;0.30;0.20;;;;;;;16.08;100.00;96710.50;4988656;28;20449;-49
2023/10/20 05:12:57;;;;;;;0.30;0.20;;;;;;;15.99;100.00;96698.06;4982187;28;20472;-49
2023/10/20 05:15:24;;;;;;;0.30;0.20;;;;;;;16.04;100.00;96668.13;4982623;28;20465;-48
2023/10/20 05:17:52;;;;;;;0.30;0.20;;;;;;;15.96;100.00;96663.59;4988931;28;20490;-49
2023/10/20 05:20:22;;;;;;;0.30;0.20;;;;;;;16.08;100.00;96654.22;4971715;28;20432;-48
2023/10/20 05:22:49;;;;;;;0.30;0.20;;;;;;;15.99;100.00;96657.91;4983216;28;20524;-51
2023/10/20 05:25:17;;;;;;;0.30;0.20;;;;;;;16.16;100.00;96678.31;4982175;28;20513;-48
2023/10/20 05:27:43;;;;;;;0.30;0.20;;;;;;;16.10;100.00;96694.25;4987028;28;20816;-48
2023/10/20 05:30:10;;;;;;;0.30;0.20;;;;;;;16.28;100.00;96701.09;4988650;28;20457;-48
2023/10/20 05:32:39;;;;;;;0.30;0.20;;;;;;;16.73;100.00;96706.97;4983791;28;20493;-48
2023/10/20 05:35:09;;;;;;;0.30;0.20;;;;;;;16.65;100.00;96701.56;4981950;28;20541;-48
2023/10/20 05:37:36;;;;;;;0.30;0.20;;;;;;;16.63;100.00;96701.75;4985615;28;20424;-48
2023/10/20 05:40:03;;;;;;;0.30;0.20;;;;;;;16.59;100.00;96708.47;4988613;28;20492;-48
2023/10/20 05:42:31;;;;;;;0.30;0.20;;;;;;;16.41;100.00;96697.06;4985468;28;20887;-48
2023/10/20 05:45:09;;;;;;;0.57;0.57;;;;;;;16.53;100.00;96701.94;4981746;28;21047;-48
2023/10/20 05:47:37;;;;;;;0.30;0.20;;;;;;;16.35;100.00;96700.44;4983406;28;20450;-48
2023/10/20 05:50:06;;;;;;;0.30;0.20;;;;;;;16.38;100.00;96700.94;4988471;28;20473;-48
2023/10/20 05:52:35;;;;;;;0.30;0.20;;;;;;;16.34;100.00;96710.31;4987136;28;20480;-49
2023/10/20 05:55:03;;;;;;;0.30;0.20;;;;;;;16.53;100.00;96695.72;4975769;28;20446;-48
2023/10/20 05:57:29;;;;;;;0.30;0.20;;;;;;;16.74;100.00;96693.38;4975438;28;20537;-48
2023/10/20 05:59:59;;;;;;;0.30;0.20;;;;;;;16.65;100.00;96696.22;4988134;28;20425;-49
2023/10/20 06:02:25;;;;;;;0.30;0.20;;;;;;;16.59;100.00;96687.03;4975640;28;20569;-48
2023/10/20 06:04:52;;;;;;;0.30;0.20;;;;;;;16.59;100.00;96687.03;4970468;28;20469;-48
2023/10/20 06:07:19;;;;;;;0.30;0.20;;;;;;;16.78;100.00;96675.94;4981143;28;20450;-50
2023/10/20 06:09:46;;;;;;;0.30;0.20;;;;;;;16.68;100.00;96674.44;4987982;28;20941;-48
2023/10/20 06:12:13;;;;;;;0.30;0.20;;;;;;;16.48;100.00;96673.97;4987819;28;20473;-48
2023/10/20 06:14:39;;;;;;;0.30;0.20;;;;;;;16.43;100.00;96668.25;4981507;28;20493;-49
2023/10/20 06:17:06;;;;;;;0.30;0.20;;;;;;;16.42;100.00;96659.38;4981073;28;20485;-49
2023/10/20 06:19:32;;;;;;;0.30;0.20;;;;;;;16.48;100.00;96649.84;4987330;28;20486;-49
2023/10/20 06:22:00;;;;;;;0.30;0.20;;;;;;;16.44;100.00;96624.34;4987327;28;20509;-48
2023/10/20 06:24:27;;;;;;;0.30;0.20;;;;;;;16.37;100.00;96601.94;4981895;28;20528;-48
2023/10/20 06:27:02;;;;;;;0.30;0.20;;;;;;;16.30;100.00;96588.34;4981009;28;20810;-49
2023/10/20 06:29:42;;;;;;;0.30;0.20;;;;;;;16.14;100.00;96575.84;4985682;28;20447;-50
2023/10/20 06:32:32;;;;;;;0.30;0.20;;;;;;;16.19;100.00;96575.34;4987411;28;20880;-48
2023/10/20 06:35:00;;;;;;;0.30;0.20;;;;;;;16.10;100.00;96577.19;4970151;28;20462;-48
2023/10/20 06:39:56;;;;;;;0.30;0.20;;;;;;;16.25;100.00;96562.09;4980706;28;20570;-48
2023/10/20 06:42:24;;;;;;;0.30;0.20;;;;;;;16.16;100.00;96560.41;4985478;28;20558;-48
2023/10/20 06:44:51;;;;;;;0.30;0.20;;;;;;;16.04;100.00;96574.38;4987171;28;20472;-48
2023/10/20 06:47:18;;;;;;;0.30;0.20;;;;;;;16.05;100.00;96574.19;4982367;28;20985;-48
2023/10/20 06:49:45;;;;;;;0.30;0.20;;;;;;;16.42;100.00;96567.41;4980561;28;20461;-49
2023/10/20 06:52:17;;;;;;;0.30;0.20;;;;;;;16.33;100.00;96576.50;4985346;28;20452;-48
2023/10/20 06:54:45;;;;;;;0.30;0.20;;;;;;;16.49;100.00;96563.88;4986470;28;20509;-48
2023/10/20 06:57:31;;;;;;;0.30;0.20;;;;;;;16.66;100.00;96567.31;4973862;28;20968;-49
2023/10/20 06:59:58;;;;;;;0.30;0.20;;;;;;;16.59;100.00;96577.09;4987146;28;20451;-50
2023/10/20 07:02:25;;;;;;;0.30;0.20;;;;;;;16.42;100.00;96592.34;4962239;28;20487;-48
2023/10/20 07:04:51;;;;;;;0.30;0.20;;;;;;;16.46;100.00;96600.91;4982838;28;20953;-48
2023/10/20 07:07:18;;;;;;;0.40;0.20;;;;;;;16.26;100.00;96579.00;4986885;28;20544;-48
2023/10/20 07:09:45;;;;;;;0.30;0.20;;;;;;;16.20;100.00;96567.13;4967383;28;20496;-48
2023/10/20 07:12:11;;;;;;;1.07;1.07;;;;;;;16.27;100.00;96554.69;4980142;28;20539;-48
2023/10/20 07:14:42;;;;;;;0.30;0.20;;;;;;;16.07;100.00;96537.34;4968474;28;20499;-48
2023/10/20 07:17:09;;;;;;;0.40;0.30;;;;;;;16.30;100.00;96543.63;4979963;28;20429;-48
2023/10/20 07:19:35;;;;;;;0.30;0.20;;;;;;;16.49;100.00;96552.31;4985837;28;20485;-48
2023/10/20 07:22:05;;;;;;;0.30;0.20;;;;;;;16.40;100.00;96543.44;4986936;28;20478;-48
2023/10/20 07:24:32;;;;;;;0.30;0.20;;;;;;;16.46;100.00;96536.56;4981789;28;20539;-48
2023/10/20 07:26:59;;;;;;;0.30;0.20;;;;;;;16.18;100.00;96533.47;4980047;28;20456;-48
2023/10/20 07:29:26;;;;;;;0.30;0.20;;;;;;;16.20;100.00;96532.28;4984562;28;20451;-48
2023/10/20 07:31:53;;;;;;;0.30;0.20;;;;;;;16.20;100.00;96520.75;4986358;28;20991;-48
2023/10/20 07:34:21;;;;;;;0.30;0.20;;;;;;;16.17;100.00;96529.97;4974750;28;20553;-48
2023/10/20 07:36:47;;;;;;;0.30;0.20;;;;;;;15.83;100.00;96534.69;4972151;28;20464;-48
2023/10/20 07:39:16;;;;;;;0.30;0.20;;;;;;;16.11;100.00;96540.50;4983656;28;20931;-49
2023/10/20 07:41:44;;;;;;;0.30;0.20;;;;;;;16.05;100.00;96534.00;4986278;28;20474;-48
2023/10/20 07:44:12;;;;;;;0.30;0.30;;;;;;;16.01;100.00;96535.34;4983627;28;20464;-48
2023/10/20 07:46:42;;;;;;;0.30;0.20;;;;;;;15.98;100.00;96539.19;4979663;28;20909;-47
2023/10/20 07:49:12;;;;;;;0.30;0.20;;;;;;;16.05;100.00;96533.16;4982412;28;20482;-48
2023/10/20 07:51:39;;;;;;;0.30;0.20;;;;;;;16.24;100.00;96536.28;4986378;28;20987;-48
2023/10/20 07:54:08;;;;;;;0.30;0.20;;;;;;;16.37;100.00;96535.75;4985924;28;20496;-49
2023/10/20 07:56:35;;;;;;;0.30;0.20;;;;;;;16.22;100.00;96526.75;4978262;28;20455;-48
2023/10/20 07:59:03;;;;;;;0.30;0.20;;;;;;;16.15;100.00;96525.75;4989593;28;20515;-48
2023/10/20 08:01:30;;;;;;;0.30;0.20;;;;;;;16.11;100.00;96516.41;4978860;28;20436;-48
2023/10/20 08:03:57;;;;;;;0.30;0.20;;;;;;;16.26;100.00;96520.88;4987755;28;20447;-48
2023/10/20 08:06:24;;;;;;;0.30;0.20;;;;;;;16.30;100.00;96522.19;4989751;28;20420;-48
2023/10/20 08:08:52;;;;;;;0.30;0.20;;;;;;;16.32;100.00;96526.56;4990074;28;20431;-48
2023/10/20 08:11:18;;;;;;;0.40;0.20;;;;;;;16.33;100.00;96528.25;4983607;28;20531;-48
2023/10/20 08:13:50;;;;;;;1.30;1.30;;;;;;;16.35;100.00;96537.78;4983637;28;20471;-48
2023/10/20 08:16:20;;;;;;;0.30;0.20;;;;;;;16.07;100.00;96542.72;4954570;28;20823;-48
2023/10/20 08:18:48;;;;;;;0.30;0.20;;;;;;;16.17;100.00;96555.91;4983830;28;20432;-48
2023/10/20 08:21:16;;;;;;;0.30;0.20;;;;;;;16.12;100.00;96558.25;4988594;28;20450;-48
2023/10/20 08:23:43;;;;;;;0.30;0.20;;;;;;;16.04;100.00;96566.31;4989811;28;20444;-49
2023/10/20 08:26:16;;;;;;;0.40;0.37;;;;;;;16.44;100.00;96571.56;4985372;28;20428;-48
2023/10/20 08:28:43;;;;;;;0.30;0.20;;;;;;;16.29;100.00;96587.53;4983120;28;20420;-48
2023/10/20 08:31:16;;;;;;;0.30;0.20;;;;;;;16.27;100.00;96591.38;4986430;28;20433;-48
2023/10/20 08:33:43;;;;;;;0.30;0.20;;;;;;;16.39;100.00;96599.91;4989746;28;20887;-48
2023/10/20 08:36:12;;;;;;;0.30;0.20;;;;;;;16.44;100.00;96601.06;4987754;28;20455;-48
2023/10/20 08:38:43;;;;;;;0.30;0.20;;;;;;;16.56;100.00;96601.53;4982838;28;20453;-48
2023/10/20 08:41:14;;;;;;;0.30;0.20;;;;;;;16.52;100.00;96600.22;4984549;28;20517;-49
2023/10/20 08:43:42;;;;;;;0.30;0.20;;;;;;;16.60;100.00;96592.16;4989159;28;20484;-48
2023/10/20 08:46:10;;;;;;;0.30;0.20;;;;;;;16.45;100.00;96585.84;4989379;28;20578;-48
2023/10/20 08:48:39;;;;;;;0.30;0.20;;;;;;;16.25;100.00;96585.38;4989603;28;20428;-48
2023/10/20 08:51:06;;;;;;;0.30;0.20;;;;;;;16.62;100.00;96589.31;4989431;28;20431;-49
2023/10/20 08:53:37;;;;;;;0.30;0.20;;;;;;;16.61;100.00;96595.69;4983073;28;20477;-48
2023/10/20 08:56:06;;;;;;;0.30;0.20;;;;;;;16.81;100.00;96586.22;4981212;28;20458;-49
2023/10/20 08:58:33;;;;;;;0.30;0.20;;;;;;;16.48;100.00;96589.00;4984336;28;20462;-49
2023/10/20 09:01:00;;;;;;;0.30;0.20;;;;;;;16.55;100.00;96592.66;4981777;28;20557;-49
2023/10/20 09:03:36;;;;;;;1.17;1.17;;;;;;;16.79;100.00;96591.78;4984097;28;20497;-50
2023/10/20 09:06:09;;;;;;;0.30;0.20;;;;;;;16.56;100.00;96590.81;4978468;28;20423;-49
2023/10/20 09:08:36;;;;;;;0.30;0.20;;;;;;;16.81;100.00;96588.91;4985160;28;20542;-49
2023/10/20 09:11:07;;;;;;;0.30;0.20;;;;;;;16.66;100.00;96599.50;4989808;28;20542;-49
2023/10/20 09:13:37;;;;;;;0.30;0.20;;;;;;;16.58;100.00;96592.34;4987226;28;20922;-49
2023/10/20 09:16:08;;;;;;;0.30;0.20;;;;;;;16.69;100.00;96601.03;4982263;28;20799;-49
2023/10/20 09:18:49;;;;;;;0.30;0.20;;;;;;;17.03;100.00;96606.09;4983038;28;20443;-50
2023/10/20 09:21:18;;;;;;;0.30;0.20;;;;;;;17.34;100.00;96625.72;4972022;28;20427;-49
2023/10/20 09:23:56;;;;;;;0.30;0.20;;;;;;;17.64;100.00;96642.00;4982419;28;20927;-48
2023/10/20 09:26:25;;;;;;;0.30;0.20;;;;;;;17.47;100.00;96671.63;4984848;28;20831;-48
2023/10/20 09:28:56;;;;;;;0.30;0.20;;;;;;;17.58;100.00;96669.56;4988644;28;20437;-48
2023/10/20 09:31:24;;;;;;;0.30;0.20;;;;;;;17.53;100.00;96671.94;4987031;28;20435;-48
2023/10/20 09:33:51;;;;;;;0.30;0.20;;;;;;;17.70;100.00;96671.72;4981719;28;20493;-48
2023/10/20 09:36:18;;;;;;;0.37;0.30;;;;;;;17.60;100.00;96667.53;4980130;28;20454;-48
2023/10/20 09:38:50;;;;;;;0.53;0.53;;;;;;;17.87;100.00;96671.59;4981844;28;20983;-49
2023/10/20 09:41:20;;;;;;;0.30;0.20;;;;;;;17.67;100.00;96689.97;4982164;28;20469;-49
2023/10/20 09:43:48;;;;;;;0.30;0.20;;;;;;;17.74;100.00;96691.00;4969131;28;20439;-49
2023/10/20 09:46:36;;;;;;;0.37;0.20;;;;;;;17.80;100.00;96703.69;4981545;28;20477;-48
2023/10/20 09:49:18;;;;;;;0.30;0.20;;;;;;;17.75;100.00;96698.03;4975271;28;20447;-49
2023/10/20 09:51:47;;;;;;;0.40;0.20;;;;;;;17.39;100.00;96693.16;4979769;28;20824;-48
2023/10/20 09:54:16;;;;;;;0.40;0.20;;;;;;;17.46;100.00;96688.75;4982501;28;20563;-48
2023/10/20 09:56:44;;;;;;;0.40;0.20;;;;;;;17.57;100.00;96682.16;4958283;28;20821;-51
2023/10/20 09:59:23;;;;;;;0.33;0.20;;;;;;;17.70;100.00;96695.06;4988078;28;21000;-51
2023/10/20 10:01:57;;;;;;;0.40;0.20;;;;;;;17.73;100.00;96687.47;4964882;28;20480;-51
2023/10/20 10:04:39;;;;;;;0.30;0.20;;;;;;;17.64;100.00;96674.22;4984363;28;20447;-51
2023/10/20 10:07:08;;;;;;;0.40;0.20;;;;;;;17.93;100.00;96669.03;4986798;28;20446;-51
2023/10/20 10:09:43;;;;;;;0.40;0.40;;;;;;;17.79;100.00;96668.94;4981498;28;20483;-51
2023/10/20 10:12:14;;;;;;;0.37;0.20;;;;;;;17.67;100.00;96672.00;4981608;28;20440;-51
2023/10/20 10:14:41;;;;;;;0.40;0.20;;;;;;;18.03;100.00;96650.81;4970182;28;20482;-51
2023/10/20 10:17:09;;;;;;;0.40;0.20;;;;;;;18.07;100.00;96662.03;4980392;28;20425;-51
2023/10/20 10:19:48;;;;;;;0.30;0.20;;;;;;;17.88;100.00;96644.53;4969038;28;20429;-51
2023/10/20 10:22:15;;;;;;;0.40;0.20;;;;;;;17.67;100.00;96645.16;4987680;28;20553;-50
2023/10/20 10:24:52;;;;;;;0.40;0.20;;;;;;;17.57;100.00;96644.56;4984483;28;20464;-51
2023/10/20 10:27:22;;;;;;;0.40;0.20;;;;;;;17.61;100.00;96647.72;4981056;28;20573;-50
2023/10/20 10:32:50;;;;;;;0.30;0.20;;;;;;;17.63;100.00;96643.00;4962225;28;20463;-50
2023/10/20 10:35:17;;;;;;;0.40;0.20;;;;;;;17.90;100.00;96637.13;4980853;28;20467;-50
2023/10/20 10:37:44;;;;;;;0.30;0.20;;;;;;;17.55;100.00;96638.53;4983780;28;20947;-50
2023/10/20 10:40:13;;;;;;;0.30;0.20;;;;;;;17.90;100.00;96617.50;4987285;28;20457;-50
2023/10/20 10:42:51;;;;;;;0.40;0.20;;;;;;;17.64;100.00;96631.25;4984835;28;20538;-51
2023/10/20 10:45:30;;;;;;;0.30;0.20;;;;;;;17.51;100.00;96631.00;4980951;28;20427;-51
2023/10/20 10:48:09;;;;;;;0.30;0.20;;;;;;;17.51;100.00;96622.94;4980491;28;20454;-51
2023/10/20 10:50:39;;;;;;;0.40;0.20;;;;;;;17.76;100.00;96627.16;4984172;28;20481;-51
2023/10/20 10:53:07;;;;;;;0.40;0.20;;;;;;;17.97;100.00;96621.97;4987411;28;20477;-50
2023/10/20 10:55:37;;;;;;;0.30;0.20;;;;;;;18.06;100.00;96626.25;4974307;28;20490;-49
2023/10/20 10:58:09;;;;;;;0.30;0.20;;;;;;;18.46;100.00;96612.63;4978193;28;20478;-50
2023/10/20 11:00:37;;;;;;;0.40;0.20;;;;;;;18.47;100.00;96611.59;4982308;28;20524;-50
2023/10/20 11:03:05;;;;;;;0.40;0.20;;;;;;;18.53;100.00;96618.94;4979700;28;20459;-50
2023/10/20 11:05:33;;;;;;;0.50;0.50;;;;;;;18.78;100.00;96612.31;4977866;28;20536;-50
2023/10/20 11:08:07;;;;;;;0.40;0.20;;;;;;;18.49;100.00;96615.75;4986823;28;20452;-50
2023/10/20 11:10:42;;;;;;;0.40;0.20;;;;;;;18.80;100.00;96614.81;4987048;28;20472;-51
2023/10/20 11:13:16;;;;;;;0.40;0.20;;;;;;;18.63;100.00;96622.19;4981949;28;20468;-51
2023/10/20 11:15:47;;;;;;;0.40;0.20;;;;;;;18.83;100.00;96612.59;4979916;28;20500;-50
2023/10/20 11:18:16;;;;;;;0.40;0.20;;;;;;;18.77;100.00;96610.63;4983424;28;20487;-51
2023/10/20 11:20:47;;;;;;;0.40;0.20;;;;;;;18.69;100.00;96597.28;4986668;28;20444;-51
2023/10/20 11:23:14;;;;;;;0.40;0.20;;;;;;;18.64;100.00;96595.16;4984926;28;20466;-52
2023/10/20 11:25:42;;;;;;;0.40;0.20;;;;;;;18.68;100.00;96594.78;4979972;28;20452;-51
2023/10/20 11:28:09;;;;;;;0.40;0.20;;;;;;;18.62;100.00;96597.13;4981297;28;20574;-51
2023/10/20 11:30:38;;;;;;;0.40;0.20;;;;;;;18.60;100.00;96591.09;4986822;28;20429;-51
2023/10/20 11:33:05;;;;;;;0.40;0.20;;;;;;;18.71;100.00;96591.72;4986020;28;20557;-51
2023/10/20 11:35:32;;;;;;;0.40;0.20;;;;;;;18.97;99.66;96600.13;4979795;28;20511;-51
2023/10/20 11:38:00;;;;;;;0.40;0.20;;;;;;;19.06;99.45;96606.25;4980599;28;20457;-52
2023/10/20 11:40:27;;;;;;;0.37;0.20;;;;;;;18.86;99.68;96600.59;4979751;28;20449;-51
2023/10/20 11:42:53;;;;;;;0.40;0.20;;;;;;;19.01;99.23;96596.03;4979736;28;20949;-51
2023/10/20 11:45:20;;;;;;;0.40;0.20;;;;;;;18.99;99.19;96598.09;4980165;28;20516;-52
2023/10/20 11:47:47;;;;;;;0.60;0.60;;;;;;;19.21;98.83;96599.81;4980014;28;20574;-51
2023/10/20 11:50:15;;;;;;;0.40;0.20;;;;;;;19.28;98.14;96596.38;4986120;28;20435;-52
2023/10/20 11:52:42;;;;;;;0.40;0.20;;;;;;;19.34;98.59;96601.00;4986258;28;20444;-51
2023/10/20 11:55:10;;;;;;;0.40;0.20;;;;;;;19.23;97.86;96592.38;4973906;28;20926;-51
2023/10/20 11:57:38;;;;;;;0.40;0.20;;;;;;;19.18;98.72;96592.09;4973609;28;20460;-52
2023/10/20 12:00:09;;;;;;;0.40;0.20;;;;;;;19.34;98.73;96593.75;4986008;28;20545;-52
2023/10/20 12:02:38;;;;;;;0.40;0.20;;;;;;;19.57;97.75;96603.56;4974957;28;20488;-52
2023/10/20 12:05:09;;;;;;;0.40;0.20;;;;;;;19.62;98.07;96601.16;4980745;28;20813;-52
2023/10/20 12:07:36;;;;;;;0.40;0.20;;;;;;;19.39;98.86;96604.78;4969089;28;20424;-52
2023/10/20 12:10:05;;;;;;;0.40;0.20;;;;;;;19.60;99.02;96613.94;4981973;28;20424;-52
2023/10/20 12:12:32;;;;;;;0.40;0.20;;;;;;;19.18;100.00;96621.72;4979526;28;20471;-52
2023/10/20 12:15:00;;;;;;;0.40;0.20;;;;;;;19.43;99.70;96624.09;4983687;28;20548;-52
2023/10/20 12:17:26;;;;;;;0.40;0.20;;;;;;;19.51;99.68;96632.06;4986266;28;20451;-51